Аэропорт: Львов имени Даниила Галицкого. Львов

ICAO: UKLL

METAR:
2018/07/16 20:00
UKLL 162000Z 00000MPS CAVOK 16/14 Q1008 R31/CLRD// NOSIG
METAR:
2018/07/16 18:15
TAF UKLL 161702Z 1618/1718 27004MPS 3000 BR BKN010 
      TEMPO 1618/1620 2100 -TSRA BKN020CB 
      TEMPO 1620/1705 0400 -SHRA FG BKN002 BKN018CB 
      BECMG 1705/1706 28005G10MPS 9999 NSW BKN015 
      TEMPO 1706/1718 5000 -SHRA BKN022CB